Time;durP1;ratioP1;P1;durP2;ratioP2;P2;SDS_P1;SDS_P2;PMS_P1;PMS_P2;Temp;Humidity;BMP_temperature;BMP_pressure;BME280_temperature;BME280_humidity;BME280_pressure;Samples;Min_cycle;Max_cycle;Signal;HPM_P1;HPM_P2
2022/09/06 00:02:00;;;;;;;9.02;3.42;;;24.30;86.20;;;;;;10007387;28;20221;-62
2022/09/06 00:06:51;;;;;;;4.88;2.83;;;24.30;86.80;;;;;;10016454;28;20026;-61
2022/09/06 00:11:41;;;;;;;3.50;3.20;;;24.40;87.90;;;;;;10018926;28;20076;-63
2022/09/06 00:16:32;;;;;;;4.47;3.22;;;24.30;88.60;;;;;;10014347;28;20084;-62
2022/09/06 00:21:29;;;;;;;5.53;2.95;;;24.30;89.50;;;;;;10014490;28;20117;-62
2022/09/06 00:26:21;;;;;;;6.28;2.30;;;24.20;90.30;;;;;;10011554;28;20037;-62
2022/09/06 00:31:17;;;;;;;3.85;2.50;;;24.10;90.60;;;;;;10014695;28;20512;-62
2022/09/06 00:36:09;;;;;;;4.32;3.10;;;24.00;91.10;;;;;;10007228;28;20116;-61
2022/09/06 00:41:00;;;;;;;5.35;3.53;;;23.70;91.80;;;;;;10011115;28;20428;-64
2022/09/06 00:45:53;;;;;;;7.10;2.78;;;23.40;92.80;;;;;;10014020;28;20034;-64
2022/09/06 00:50:47;;;;;;;6.25;4.18;;;23.10;93.80;;;;;;10013505;28;20042;-62
2022/09/06 00:55:40;;;;;;;6.10;2.63;;;23.30;93.80;;;;;;10010681;28;20014;-64
2022/09/06 01:00:31;;;;;;;4.97;2.97;;;23.70;93.50;;;;;;9994798;28;20070;-61
2022/09/06 01:05:27;;;;;;;6.60;3.22;;;23.60;93.50;;;;;;10012879;28;20057;-67
2022/09/06 01:10:45;;;;;;;3.97;3.00;;;23.70;93.70;;;;;;10008739;28;20033;-67
2022/09/06 01:15:45;;;;;;;4.18;3.03;;;23.70;93.80;;;;;;10008045;28;20056;-67
2022/09/06 01:21:06;;;;;;;9.65;3.97;;;23.60;93.90;;;;;;10011265;28;20045;-67
2022/09/06 01:26:15;;;;;;;3.40;2.88;;;23.60;94.10;;;;;;10002260;28;20022;-64
2022/09/06 01:31:16;;;;;;;3.50;2.50;;;23.40;94.40;;;;;;10002511;28;20029;-63
2022/09/06 01:36:12;;;;;;;10.23;2.72;;;23.60;94.20;;;;;;10001202;28;20058;-64
2022/09/06 01:41:02;;;;;;;3.17;2.25;;;23.60;94.10;;;;;;10017125;28;20041;-60
2022/09/06 01:46:18;;;;;;;5.55;2.40;;;23.80;94.00;;;;;;10022356;28;20025;-66
2022/09/06 01:51:46;;;;;;;2.53;2.30;;;23.90;93.90;;;;;;10017597;28;20036;-66
2022/09/06 01:57:14;;;;;;;4.03;2.25;;;24.00;93.90;;;;;;10019385;28;20019;-65
2022/09/06 02:02:05;;;;;;;4.30;2.33;;;24.10;93.80;;;;;;10014258;28;20038;-63
2022/09/06 02:07:03;;;;;;;7.00;2.40;;;24.10;93.90;;;;;;10011586;28;20034;-64
2022/09/06 02:11:58;;;;;;;5.03;2.80;;;24.00;93.90;;;;;;10015132;28;20045;-68
2022/09/06 02:16:52;;;;;;;3.40;2.40;;;23.90;93.80;;;;;;10018705;28;20021;-66
2022/09/06 02:21:46;;;;;;;6.85;3.25;;;23.90;94.00;;;;;;10017792;28;20115;-68
2022/09/06 02:26:41;;;;;;;5.78;2.90;;;24.00;94.00;;;;;;10018802;28;20026;-67
2022/09/06 02:31:40;;;;;;;5.32;2.40;;;24.00;93.90;;;;;;10018754;28;20519;-64
2022/09/06 02:36:31;;;;;;;4.25;2.25;;;24.00;93.90;;;;;;10013908;28;20100;-63
2022/09/06 02:41:23;;;;;;;4.20;2.13;;;23.90;94.00;;;;;;10019127;28;20049;-62
2022/09/06 02:46:14;;;;;;;3.03;2.28;;;23.80;94.10;;;;;;10015945;28;20071;-64
2022/09/06 02:51:06;;;;;;;5.15;3.17;;;23.80;94.10;;;;;;10015578;28;20168;-64
2022/09/06 02:55:57;;;;;;;4.97;2.47;;;23.70;94.10;;;;;;10017780;28;20029;-66
2022/09/06 03:00:50;;;;;;;3.30;2.38;;;23.60;94.20;;;;;;10016820;28;20056;-61
2022/09/06 03:05:41;;;;;;;4.53;2.60;;;23.60;94.20;;;;;;10015814;28;20464;-60
2022/09/06 03:10:32;;;;;;;5.45;2.72;;;23.60;94.20;;;;;;10016660;28;20385;-62
2022/09/06 03:15:22;;;;;;;4.57;2.47;;;23.60;94.20;;;;;;10015140;28;20026;-62
2022/09/06 03:20:13;;;;;;;4.57;2.83;;;23.50;94.30;;;;;;10017102;28;20064;-66
2022/09/06 03:25:08;;;;;;;5.15;3.20;;;23.50;94.30;;;;;;10017363;28;20235;-64
2022/09/06 03:29:59;;;;;;;;;;;23.30;94.50;;;;;;10008545;28;20113;-63
2022/09/06 03:34:50;;;;;;;8.82;2.60;;;23.20;94.60;;;;;;9998671;28;20012;-65
2022/09/06 03:39:40;;;;;;;4.80;2.97;;;22.90;94.90;;;;;;10015785;28;20105;-61
2022/09/06 03:44:31;;;;;;;6.18;2.53;;;23.00;94.90;;;;;;10014619;28;20104;-64
2022/09/06 03:49:21;;;;;;;8.73;3.97;;;23.00;95.10;;;;;;10018117;28;20427;-63
2022/09/06 03:54:12;;;;;;;5.32;2.28;;;23.00;95.40;;;;;;10017306;28;20033;-60
2022/09/06 03:59:03;;;;;;;3.83;2.50;;;23.00;95.10;;;;;;10014882;28;20034;-61
2022/09/06 04:03:53;;;;;;;4.43;2.20;;;23.00;95.20;;;;;;10014212;28;20112;-61
2022/09/06 04:08:44;;;;;;;3.45;2.33;;;23.10;95.20;;;;;;10014322;28;20450;-60
2022/09/06 04:13:35;;;;;;;3.63;2.50;;;22.90;95.30;;;;;;10014985;28;20558;-60
2022/09/06 04:18:25;;;;;;;5.07;2.47;;;22.90;95.50;;;;;;10014017;28;20087;-61
2022/09/06 04:23:17;;;;;;;6.78;3.65;;;23.00;95.50;;;;;;10014973;28;20065;-62
2022/09/06 04:28:07;;;;;;;6.97;3.03;;;22.90;95.60;;;;;;10013384;28;20018;-61
2022/09/06 04:32:58;;;;;;;3.83;3.03;;;22.90;95.70;;;;;;10014509;28;20033;-59
2022/09/06 04:37:49;;;;;;;5.68;2.63;;;22.70;95.90;;;;;;10014139;28;20385;-61
2022/09/06 04:42:39;;;;;;;5.63;2.95;;;22.70;96.00;;;;;;9996394;28;20250;-60
2022/09/06 04:47:30;;;;;;;5.65;3.10;;;22.70;96.00;;;;;;10013569;28;20128;-62
2022/09/06 04:52:21;;;;;;;3.60;2.22;;;22.70;96.10;;;;;;10014426;28;20037;-61
2022/09/06 04:57:11;;;;;;;3.90;2.50;;;22.70;96.20;;;;;;10013295;28;20052;-60
2022/09/06 05:02:02;;;;;;;3.85;2.80;;;22.60;96.30;;;;;;10014917;28;20040;-62
2022/09/06 05:07:04;;;;;;;5.32;3.13;;;22.70;96.40;;;;;;10011486;28;20048;-61
2022/09/06 05:11:55;;;;;;;4.10;2.60;;;22.70;96.50;;;;;;10007493;28;20025;-60
2022/09/06 05:16:45;;;;;;;4.72;2.95;;;22.80;96.50;;;;;;10012230;28;20018;-64
2022/09/06 05:21:36;;;;;;;3.92;3.20;;;22.80;96.50;;;;;;10009682;28;20140;-62
2022/09/06 05:26:26;;;;;;;5.35;2.58;;;22.70;96.80;;;;;;10013360;28;20029;-61
2022/09/06 05:31:32;;;;;;;5.63;2.88;;;22.70;96.80;;;;;;10013354;28;20026;-64
2022/09/06 05:36:23;;;;;;;5.90;2.67;;;22.90;96.80;;;;;;10005626;28;20053;-61
2022/09/06 05:41:14;;;;;;;4.07;2.22;;;22.90;96.80;;;;;;10012983;28;20049;-61
2022/09/06 05:46:04;;;;;;;4.88;2.75;;;23.10;96.70;;;;;;10013104;28;20045;-63
2022/09/06 05:51:01;;;;;;;3.33;2.33;;;23.30;96.40;;;;;;10011157;28;20022;-60
2022/09/06 05:55:52;;;;;;;2.80;2.42;;;23.40;96.40;;;;;;10011643;28;20068;-63
2022/09/06 06:00:43;;;;;;;3.80;2.80;;;23.30;96.50;;;;;;10012238;28;20072;-62
2022/09/06 06:05:33;;;;;;;4.57;3.22;;;23.30;96.60;;;;;;10010744;28;20037;-61
2022/09/06 06:10:24;;;;;;;5.13;3.33;;;23.10;96.70;;;;;;10012298;28;20460;-59
2022/09/06 06:15:15;;;;;;;5.05;3.40;;;23.30;96.70;;;;;;10011469;28;20010;-60
2022/09/06 06:20:06;;;;;;;4.57;2.88;;;23.30;96.70;;;;;;9999470;28;20049;-59
2022/09/06 06:24:57;;;;;;;5.15;2.83;;;23.30;96.90;;;;;;10008647;28;20084;-61
2022/09/06 06:29:47;;;;;;;4.85;3.58;;;23.40;96.90;;;;;;10016861;28;20088;-62
2022/09/06 06:34:38;;;;;;;6.60;3.63;;;23.60;96.70;;;;;;10001314;28;20547;-61
2022/09/06 06:39:29;;;;;;;7.05;3.72;;;23.70;96.80;;;;;;10009469;28;20389;-64
2022/09/06 06:44:19;;;;;;;10.45;3.53;;;23.70;96.90;;;;;;10004916;28;20030;-59
2022/09/06 06:49:10;;;;;;;5.47;3.60;;;23.90;96.90;;;;;;9994759;28;20558;-62
2022/09/06 06:54:00;;;;;;;9.48;3.13;;;23.90;96.80;;;;;;9998084;28;20045;-63
2022/09/06 06:58:54;;;;;;;5.95;2.92;;;23.90;96.90;;;;;;9985053;28;20165;-60
2022/09/06 07:03:45;;;;;;;5.05;3.50;;;23.80;97.00;;;;;;10001143;28;20034;-63
2022/09/06 07:08:37;;;;;;;5.05;2.92;;;23.90;96.90;;;;;;10012105;28;20901;-63
2022/09/06 07:13:27;;;;;;;7.05;3.78;;;23.80;96.90;;;;;;10001787;28;20102;-60
2022/09/06 07:18:18;;;;;;;6.13;3.63;;;23.90;96.90;;;;;;10005181;28;20524;-58
2022/09/06 07:23:09;;;;;;;6.10;3.47;;;24.00;96.80;;;;;;10016636;28;20048;-59
2022/09/06 07:28:05;;;;;;;6.90;3.35;;;24.00;96.80;;;;;;10014041;28;20018;-59
2022/09/06 07:32:58;;;;;;;8.43;2.92;;;24.00;96.90;;;;;;10016397;28;20022;-60
2022/09/06 07:37:56;;;;;;;6.32;4.35;;;24.20;96.80;;;;;;10002898;28;20061;-60
2022/09/06 07:42:47;;;;;;;11.25;5.10;;;24.20;96.90;;;;;;10010155;28;20064;-63
2022/09/06 07:47:38;;;;;;;6.55;3.60;;;24.30;96.80;;;;;;10007121;28;20044;-60
2022/09/06 07:52:29;;;;;;;5.22;3.30;;;24.60;96.80;;;;;;10016419;28;20060;-57
2022/09/06 07:57:19;;;;;;;4.72;3.38;;;24.60;96.70;;;;;;10013965;28;20075;-58
2022/09/06 08:02:10;;;;;;;5.47;3.03;;;24.50;96.70;;;;;;10015899;28;21199;-58
2022/09/06 08:07:01;;;;;;;6.78;3.53;;;24.30;96.70;;;;;;10024910;28;20394;-58
2022/09/06 08:11:51;;;;;;;7.72;3.22;;;24.30;96.70;;;;;;10014567;28;20068;-59
2022/09/06 08:16:42;;;;;;;6.53;3.17;;;24.20;96.80;;;;;;10001058;28;20017;-58
2022/09/06 08:21:33;;;;;;;10.75;4.28;;;24.20;96.70;;;;;;9999536;28;20033;-58
2022/09/06 08:26:25;;;;;;;5.60;3.47;;;24.10;96.70;;;;;;10007747;28;20416;-59
2022/09/06 08:31:16;;;;;;;3.72;2.75;;;24.20;96.70;;;;;;10012568;28;20030;-60
2022/09/06 08:36:08;;;;;;;4.00;2.83;;;24.20;96.70;;;;;;10014944;28;20029;-61
2022/09/06 08:41:24;;;;;;;7.03;3.30;;;24.30;96.60;;;;;;10010935;28;20486;-56
2022/09/06 08:46:18;;;;;;;7.35;3.00;;;24.30;96.70;;;;;;10000191;28;20122;-60
2022/09/06 08:51:19;;;;;;;4.97;2.70;;;24.30;96.60;;;;;;9992968;28;20632;-62
2022/09/06 08:56:12;;;;;;;8.50;3.20;;;24.30;96.70;;;;;;10003815;28;20083;-58
2022/09/06 09:01:11;;;;;;;3.22;2.75;;;24.30;96.70;;;;;;10013149;28;20065;-59
2022/09/06 09:06:04;;;;;;;2.83;2.58;;;24.30;96.70;;;;;;10009982;28;20048;-61
2022/09/06 09:11:01;;;;;;;7.57;3.63;;;24.50;96.70;;;;;;10010753;28;20025;-59
2022/09/06 09:15:52;;;;;;;5.13;3.15;;;24.60;96.70;;;;;;10011962;28;20026;-56
2022/09/06 09:20:43;;;;;;;3.10;2.63;;;24.60;96.70;;;;;;10000440;28;20124;-61
2022/09/06 09:25:35;;;;;;;5.63;3.10;;;24.70;96.50;;;;;;9985966;28;20053;-62
2022/09/06 09:30:43;;;;;;;5.38;2.97;;;24.90;96.50;;;;;;9992435;28;20164;-58
2022/09/06 09:35:39;;;;;;;6.88;3.08;;;25.20;96.30;;;;;;10008359;28;20022;-62
2022/09/06 09:40:40;;;;;;;5.40;2.97;;;25.50;96.20;;;;;;10005798;28;20432;-59
2022/09/06 09:45:31;;;;;;;4.60;2.30;;;25.70;96.00;;;;;;10012375;28;20332;-59
2022/09/06 09:50:29;;;;;;;5.25;3.00;;;26.00;95.80;;;;;;10007972;28;20030;-61
2022/09/06 09:55:24;;;;;;;3.90;3.10;;;25.90;95.80;;;;;;10011361;28;20108;-60
2022/09/06 10:00:32;;;;;;;6.18;2.35;;;25.80;95.80;;;;;;10013778;28;20046;-63
2022/09/06 10:05:23;;;;;;;6.10;2.63;;;25.70;95.90;;;;;;10019246;28;20046;-62
2022/09/06 10:10:20;;;;;;;4.07;2.67;;;25.70;95.90;;;;;;10019498;28;20033;-59
2022/09/06 10:15:31;;;;;;;4.70;2.35;;;25.90;95.70;;;;;;10018480;28;20561;-61
2022/09/06 10:20:39;;;;;;;4.25;2.70;;;26.10;95.40;;;;;;10017967;28;20037;-59
2022/09/06 10:25:46;;;;;;;5.50;2.35;;;26.10;95.40;;;;;;10018889;28;20026;-61
2022/09/06 10:30:52;;;;;;;8.05;2.92;;;26.30;95.20;;;;;;10016672;28;20018;-59
2022/09/06 10:35:43;;;;;;;7.22;3.15;;;26.60;94.90;;;;;;10018350;28;20423;-54
2022/09/06 10:40:52;;;;;;;2.90;2.15;;;26.70;94.70;;;;;;10018166;28;20136;-56
2022/09/06 10:45:58;;;;;;;5.03;2.35;;;26.90;94.40;;;;;;10017574;28;20076;-59
2022/09/06 10:51:13;;;;;;;5.47;2.25;;;26.90;94.30;;;;;;10018190;28;20121;-58
2022/09/06 10:56:32;;;;;;;4.03;2.30;;;26.90;94.20;;;;;;10017171;28;20030;-58
2022/09/06 11:01:53;;;;;;;4.40;1.83;;;27.10;93.90;;;;;;9971848;28;20128;-60
2022/09/06 11:06:51;;;;;;;5.65;2.00;;;27.50;93.40;;;;;;10016318;28;20045;-58
2022/09/06 11:11:57;;;;;;;3.45;2.10;;;27.70;93.10;;;;;;10016437;28;20113;-58
2022/09/06 11:17:01;;;;;;;2.60;1.70;;;28.00;92.90;;;;;;9997621;28;20025;-57
2022/09/06 11:22:23;;;;;;;3.80;2.15;;;28.20;92.60;;;;;;10016497;28;20554;-58
2022/09/06 11:27:27;;;;;;;4.45;2.08;;;28.40;92.10;;;;;;10011726;28;20324;-59
2022/09/06 11:32:47;;;;;;;6.90;2.08;;;28.60;92.10;;;;;;10010849;28;20048;-59
2022/09/06 11:37:42;;;;;;;4.15;1.63;;;28.80;91.60;;;;;;10012669;28;20066;-58
2022/09/06 11:42:44;;;;;;;6.20;2.25;;;28.90;91.60;;;;;;10013569;28;20076;-57
2022/09/06 11:47:52;;;;;;;2.95;1.67;;;29.30;90.90;;;;;;10012478;28;20104;-57
2022/09/06 11:53:11;;;;;;;2.92;1.83;;;29.20;90.70;;;;;;10013956;28;20033;-58
2022/09/06 11:58:07;;;;;;;3.10;1.33;;;29.40;90.40;;;;;;10003929;28;20018;-60
2022/09/06 12:02:58;;;;;;;4.28;2.03;;;29.60;90.10;;;;;;10010177;28;20077;-58
2022/09/06 12:08:13;;;;;;;4.30;2.10;;;29.40;89.90;;;;;;10014856;28;20121;-60
2022/09/06 12:13:33;;;;;;;2.42;1.55;;;29.60;88.70;;;;;;10012908;28;20504;-59
2022/09/06 12:18:46;;;;;;;2.80;1.90;;;29.70;87.80;;;;;;9998212;28;20084;-58
2022/09/06 12:23:36;;;;;;;3.33;1.40;;;30.00;86.70;;;;;;10011056;28;20341;-57
2022/09/06 12:28:51;;;;;;;3.80;1.98;;;30.50;86.30;;;;;;10014347;28;20725;-58
2022/09/06 12:33:43;;;;;;;3.55;1.45;;;30.70;84.80;;;;;;10014574;28;20159;-59
2022/09/06 12:38:33;;;;;;;4.68;1.80;;;30.80;84.90;;;;;;10007658;28;20045;-59
2022/09/06 12:43:25;;;;;;;6.15;3.25;;;30.50;84.50;;;;;;10014401;28;20033;-57
2022/09/06 12:48:32;;;;;;;4.88;2.25;;;30.40;83.80;;;;;;10013725;28;20407;-56
2022/09/06 12:53:24;;;;;;;3.25;1.70;;;30.50;82.90;;;;;;10005454;28;20250;-57
2022/09/06 12:58:14;;;;;;;3.80;1.75;;;31.00;82.30;;;;;;10013286;28;20030;-57
2022/09/06 13:03:39;;;;;;;3.47;1.67;;;31.10;81.40;;;;;;10003603;28;20516;-58
2022/09/06 13:08:33;;;;;;;4.72;1.88;;;31.10;81.80;;;;;;9988348;28;20022;-57
2022/09/06 13:13:25;;;;;;;5.30;1.83;;;31.80;82.40;;;;;;9999771;28;20125;-58
2022/09/06 13:18:19;;;;;;;2.08;1.63;;;32.70;83.10;;;;;;9992466;28;20033;-59
2022/09/06 13:23:11;;;;;;;4.88;1.90;;;33.80;82.00;;;;;;9984830;28;20147;-60
2022/09/06 13:28:02;;;;;;;5.53;1.92;;;34.30;80.20;;;;;;9990536;28;20121;-58
2022/09/06 13:32:53;;;;;;;3.05;1.40;;;35.10;78.50;;;;;;9989822;28;20113;-59
2022/09/06 13:37:48;;;;;;;4.68;2.00;;;35.70;75.80;;;;;;10006863;28;20042;-59
2022/09/06 13:42:39;;;;;;;3.83;1.67;;;36.60;72.90;;;;;;10002772;28;20097;-58
2022/09/06 13:47:29;;;;;;;2.10;1.40;;;36.80;70.00;;;;;;10002807;28;20072;-59
2022/09/06 13:52:21;;;;;;;3.60;1.60;;;37.00;68.00;;;;;;9990527;28;20031;-59
2022/09/06 13:57:12;;;;;;;3.05;1.60;;;37.50;65.30;;;;;;10003084;28;20022;-56
2022/09/06 14:02:11;;;;;;;2.13;1.73;;;37.70;63.20;;;;;;10000312;28;20069;-59
2022/09/06 14:07:03;;;;;;;3.97;1.92;;;37.50;61.20;;;;;;9996456;28;20046;-58
2022/09/06 14:11:54;;;;;;;3.70;1.48;;;37.70;60.90;;;;;;10007388;28;20033;-60
2022/09/06 14:16:46;;;;;;;4.38;1.77;;;37.90;60.10;;;;;;10004644;28;20010;-58
2022/09/06 14:21:37;;;;;;;4.55;1.52;;;37.90;59.30;;;;;;10011722;28;20037;-58
2022/09/06 14:26:28;;;;;;;5.43;1.60;;;37.40;58.80;;;;;;10019280;28;20032;-57
2022/09/06 14:31:22;;;;;;;2.88;1.73;;;37.20;59.10;;;;;;10000958;28;20858;-60
2022/09/06 14:36:15;;;;;;;4.35;1.98;;;37.10;58.90;;;;;;10004322;28;20015;-57
2022/09/06 14:41:08;;;;;;;3.65;2.00;;;37.00;58.50;;;;;;10001544;28;20436;-59
2022/09/06 14:46:07;;;;;;;7.47;2.08;;;36.80;58.90;;;;;;9999559;28;20029;-57
2022/09/06 14:50:58;;;;;;;5.03;2.15;;;36.80;58.20;;;;;;9993475;28;20400;-57
2022/09/06 14:55:49;;;;;;;10.82;2.85;;;37.50;58.10;;;;;;9995794;28;20419;-58
2022/09/06 15:00:40;;;;;;;2.17;1.92;;;38.00;57.30;;;;;;10017540;28;20070;-58
2022/09/06 15:05:30;;;;;;;6.32;2.10;;;38.30;56.90;;;;;;10023140;28;20082;-58
2022/09/06 15:10:21;;;;;;;5.38;2.13;;;38.70;56.60;;;;;;9993736;28;20745;-58
2022/09/06 15:15:12;;;;;;;7.55;2.20;;;39.40;55.90;;;;;;10002472;28;20034;-61
2022/09/06 15:20:03;;;;;;;2.17;1.67;;;39.90;55.00;;;;;;9993713;28;20100;-61
2022/09/06 15:24:54;;;;;;;6.22;2.13;;;38.80;55.10;;;;;;10009330;28;20152;-59
2022/09/06 15:29:44;;;;;;;5.13;2.30;;;39.00;53.60;;;;;;10009776;28;20037;-60
2022/09/06 15:34:35;;;;;;;4.83;1.70;;;39.50;53.50;;;;;;9996031;28;20595;-59
2022/09/06 15:39:26;;;;;;;6.33;3.47;;;38.00;52.50;;;;;;9997338;28;20331;-59
2022/09/06 15:44:18;;;;;;;4.57;3.33;;;37.50;54.80;;;;;;10004583;28;20048;-55
2022/09/06 15:49:12;;;;;;;5.57;1.42;;;40.20;52.00;;;;;;10015585;28;20040;-56
2022/09/06 15:54:04;;;;;;;2.35;1.63;;;41.40;50.50;;;;;;10010549;28;20018;-58
2022/09/06 15:58:55;;;;;;;3.95;1.60;;;41.40;50.20;;;;;;10010608;28;20022;-58
2022/09/06 16:03:48;;;;;;;4.47;1.77;;;41.30;49.40;;;;;;10012616;28;20399;-59
2022/09/06 16:08:38;;;;;;;3.90;1.75;;;41.70;48.50;;;;;;10009432;28;20030;-58
2022/09/06 16:13:34;;;;;;;4.05;1.75;;;42.00;47.90;;;;;;10015247;28;20407;-59
2022/09/06 16:18:24;;;;;;;7.35;1.83;;;41.60;47.70;;;;;;10009256;28;20061;-59
2022/09/06 16:23:15;;;;;;;3.80;1.65;;;41.60;47.60;;;;;;10013993;28;20055;-60
2022/09/06 16:28:06;;;;;;;2.80;1.80;;;42.40;47.20;;;;;;10013870;28;20026;-60
2022/09/06 16:32:56;;;;;;;4.03;2.03;;;42.70;46.50;;;;;;10014326;28;20480;-59
2022/09/06 16:37:47;;;;;;;2.67;1.80;;;41.50;47.00;;;;;;10012665;28;20038;-57
2022/09/06 16:42:38;;;;;;;3.30;2.78;;;39.30;48.50;;;;;;10019605;28;20069;-58
2022/09/06 16:47:30;;;;;;;3.50;1.65;;;37.60;50.80;;;;;;10013329;28;20025;-58
2022/09/06 16:52:21;;;;;;;2.22;1.55;;;39.30;49.00;;;;;;10011376;28;20428;-59
2022/09/06 16:57:12;;;;;;;3.92;2.30;;;40.20;47.90;;;;;;10011615;28;20018;-59
2022/09/06 17:02:03;;;;;;;4.15;1.90;;;39.10;48.60;;;;;;10013966;28;20073;-58
2022/09/06 17:06:55;;;;;;;6.95;2.42;;;38.20;49.60;;;;;;10012113;28;20061;-59
2022/09/06 17:11:48;;;;;;;4.03;1.70;;;37.70;50.00;;;;;;10013043;28;20136;-59
2022/09/06 17:21:48;;;;;;;2.63;1.70;;;34.10;53.80;;;;;;10007780;28;20072;-57
2022/09/06 17:26:39;;;;;;;5.05;2.67;;;32.60;55.50;;;;;;10012489;28;20033;-58
2022/09/06 17:31:30;;;;;;;5.25;1.88;;;31.70;56.50;;;;;;10012094;28;20037;-59
2022/09/06 17:36:26;;;;;;;5.70;1.70;;;31.30;57.30;;;;;;10008406;28;20471;-58
2022/09/06 17:41:34;;;;;;;4.53;2.00;;;30.60;58.30;;;;;;10012473;28;20512;-59
2022/09/06 17:46:25;;;;;;;6.82;2.13;;;30.30;59.10;;;;;;10006952;28;20033;-59
2022/09/06 17:51:16;;;;;;;5.38;2.10;;;30.00;59.80;;;;;;10012222;28;20038;-58
2022/09/06 17:56:08;;;;;;;4.00;1.63;;;29.90;60.10;;;;;;10011587;28;20044;-59
2022/09/06 18:01:08;;;;;;;5.32;1.75;;;29.60;60.80;;;;;;10006744;28;20400;-60
2022/09/06 18:06:07;;;;;;;3.22;1.40;;;29.50;61.10;;;;;;10010253;28;20366;-58
2022/09/06 18:10:58;;;;;;;4.82;2.28;;;29.20;61.00;;;;;;10012452;28;20145;-59
2022/09/06 18:15:49;;;;;;;4.57;1.80;;;28.90;60.40;;;;;;10011416;28;20022;-60
2022/09/06 18:20:39;;;;;;;5.47;1.85;;;28.90;60.30;;;;;;10011442;28;20042;-57
2022/09/06 18:25:30;;;;;;;3.47;1.65;;;28.80;60.20;;;;;;10016370;28;20072;-59
2022/09/06 18:30:21;;;;;;;5.43;1.70;;;28.70;60.50;;;;;;10019294;28;20109;-60
2022/09/06 18:35:11;;;;;;;2.33;1.50;;;28.80;60.60;;;;;;10016419;28;20034;-60
2022/09/06 18:40:05;;;;;;;3.85;1.60;;;28.50;61.10;;;;;;9999844;28;20061;-59
2022/09/06 18:44:56;;;;;;;2.35;1.40;;;28.20;62.30;;;;;;10018661;28;20030;-59
2022/09/06 18:49:47;;;;;;;2.97;1.52;;;28.20;62.80;;;;;;10019727;28;20026;-59
2022/09/06 18:54:38;;;;;;;5.35;1.80;;;28.30;63.00;;;;;;9997295;28;20076;-60
2022/09/06 18:59:28;;;;;;;7.43;1.95;;;28.30;63.40;;;;;;10008730;28;20524;-60
2022/09/06 19:04:19;;;;;;;3.97;1.80;;;28.20;63.90;;;;;;10009414;28;20065;-58
2022/09/06 19:09:13;;;;;;;5.55;1.75;;;27.90;64.70;;;;;;10014151;28;20495;-60
2022/09/06 19:14:04;;;;;;;3.87;1.57;;;27.70;65.50;;;;;;10012918;28;20393;-59
2022/09/06 19:18:59;;;;;;;3.30;1.77;;;27.70;65.80;;;;;;10016640;28;20140;-59
2022/09/06 19:23:57;;;;;;;3.33;1.30;;;27.20;66.90;;;;;;10016789;28;20056;-59
2022/09/06 19:29:00;;;;;;;4.00;1.48;;;27.20;67.20;;;;;;10016761;28;20056;-60
2022/09/06 19:33:51;;;;;;;2.90;1.67;;;27.20;68.00;;;;;;10017235;28;20105;-62
2022/09/06 19:38:42;;;;;;;3.83;1.77;;;27.00;67.50;;;;;;10014399;28;20046;-60
2022/09/06 19:43:33;;;;;;;3.03;1.33;;;27.00;67.80;;;;;;10016072;28;20033;-62
2022/09/06 19:48:26;;;;;;;4.68;1.45;;;26.90;68.30;;;;;;10015975;28;20500;-59
2022/09/06 19:53:16;;;;;;;2.65;1.25;;;26.90;68.50;;;;;;10015350;28;20034;-59
2022/09/06 19:58:07;;;;;;;3.80;1.70;;;26.50;68.90;;;;;;9998186;28;20014;-58
2022/09/06 20:02:58;;;;;;;1.88;1.17;;;26.50;69.70;;;;;;10016157;28;20389;-59
2022/09/06 20:07:49;;;;;;;7.60;1.52;;;26.50;69.40;;;;;;10006755;28;20033;-60
2022/09/06 20:12:39;;;;;;;5.45;1.58;;;26.40;69.90;;;;;;10013913;28;20025;-59
2022/09/06 20:17:30;;;;;;;3.97;1.02;;;26.10;70.60;;;;;;10009912;28;20034;-59
2022/09/06 20:22:21;;;;;;;2.45;1.00;;;26.10;70.60;;;;;;10006284;28;20440;-61
2022/09/06 20:27:11;;;;;;;14.55;1.50;;;25.90;71.20;;;;;;10014467;28;20026;-59
2022/09/06 20:32:02;;;;;;;3.53;1.70;;;25.90;71.30;;;;;;10015027;28;20476;-61
2022/09/06 20:36:53;;;;;;;2.83;1.13;;;25.90;71.80;;;;;;10013010;28;20503;-59
2022/09/06 20:41:44;;;;;;;2.85;1.17;;;25.80;71.90;;;;;;10021876;28;20075;-60
2022/09/06 20:46:39;;;;;;;3.95;1.13;;;25.70;72.00;;;;;;10009960;28;20025;-60
2022/09/06 20:51:31;;;;;;;5.05;1.98;;;25.60;72.30;;;;;;10014158;28;20048;-59
2022/09/06 20:56:25;;;;;;;2.58;0.98;;;25.70;72.40;;;;;;10007908;28;20495;-58
2022/09/06 21:01:21;;;;;;;1.45;1.00;;;25.60;73.00;;;;;;10013564;28;20038;-59
2022/09/06 21:06:11;;;;;;;4.38;1.63;;;25.50;73.50;;;;;;10010957;28;20034;-59
2022/09/06 21:11:04;;;;;;;1.95;0.98;;;25.60;73.70;;;;;;10014776;28;20025;-58
2022/09/06 21:15:55;;;;;;;3.63;1.00;;;25.60;73.90;;;;;;9994816;28;20444;-58
2022/09/06 21:21:00;;;;;;;3.55;1.52;;;25.60;74.00;;;;;;10011999;28;20040;-57
2022/09/06 21:25:54;;;;;;;;;;;25.40;74.70;;;;;;10012666;28;20049;-60
2022/09/06 21:30:45;;;;;;;2.05;1.00;;;25.40;74.80;;;;;;10012140;28;19992;-59
2022/09/06 21:35:36;;;;;;;4.72;2.83;;;25.30;74.90;;;;;;10011895;28;20152;-58
2022/09/06 21:40:26;;;;;;;4.53;1.70;;;25.50;74.80;;;;;;10012179;28;20072;-58
2022/09/06 21:45:17;;;;;;;2.47;1.17;;;25.70;74.50;;;;;;10009576;28;20096;-61
2022/09/06 21:50:08;;;;;;;5.53;1.25;;;25.70;74.60;;;;;;10011305;28;20109;-59
2022/09/06 21:54:59;;;;;;;2.78;1.45;;;25.80;75.00;;;;;;10012283;28;20101;-60
2022/09/06 21:59:49;;;;;;;1.85;0.93;;;25.50;75.00;;;;;;10019674;28;20096;-61
2022/09/06 22:04:41;;;;;;;1.40;0.88;;;25.40;75.30;;;;;;10018871;28;20026;-61
2022/09/06 22:09:31;;;;;;;3.10;0.88;;;25.20;75.80;;;;;;10019763;28;20037;-60
2022/09/06 22:14:22;;;;;;;2.17;0.90;;;25.20;76.00;;;;;;10018498;28;20492;-61
2022/09/06 22:19:13;;;;;;;2.00;0.90;;;25.20;75.90;;;;;;10018722;28;20162;-60
2022/09/06 22:24:07;;;;;;;3.63;1.05;;;25.30;76.00;;;;;;10018010;28;20116;-60
2022/09/06 22:28:59;;;;;;;3.60;1.27;;;25.40;76.00;;;;;;10015956;28;20538;-60
2022/09/06 22:33:50;;;;;;;5.65;1.20;;;25.30;76.30;;;;;;10017860;28;20018;-60
2022/09/06 22:38:41;;;;;;;1.80;0.85;;;25.30;76.30;;;;;;10017076;28;20091;-61
2022/09/06 22:43:32;;;;;;;1.88;1.30;;;25.30;76.60;;;;;;10016891;28;20563;-61
2022/09/06 22:48:23;;;;;;;2.88;0.90;;;25.30;76.60;;;;;;10018980;28;20022;-61
2022/09/06 22:53:13;;;;;;;3.92;1.02;;;25.10;77.10;;;;;;10018234;28;20026;-60
2022/09/06 22:58:04;;;;;;;2.60;1.00;;;24.90;77.70;;;;;;10011143;28;20257;-60
2022/09/06 23:02:55;;;;;;;1.52;1.20;;;24.80;78.10;;;;;;9984887;28;20041;-61
2022/09/06 23:07:48;;;;;;;1.30;0.80;;;24.90;78.40;;;;;;10014274;28;20015;-61
2022/09/06 23:12:38;;;;;;;2.30;0.95;;;24.80;78.80;;;;;;9997982;28;20025;-60
2022/09/06 23:17:29;;;;;;;2.58;1.50;;;24.70;79.20;;;;;;10017610;28;20018;-59
2022/09/06 23:22:19;;;;;;;1.73;0.82;;;24.70;79.50;;;;;;10017566;28;20038;-60
2022/09/06 23:27:10;;;;;;;1.67;1.23;;;24.50;80.40;;;;;;10015146;28;20106;-59
2022/09/06 23:32:01;;;;;;;3.28;1.20;;;24.50;81.00;;;;;;10015693;28;20088;-59
2022/09/06 23:36:52;;;;;;;3.13;1.35;;;24.20;81.70;;;;;;10015834;28;20029;-59
2022/09/06 23:41:43;;;;;;;2.00;1.10;;;24.10;82.40;;;;;;10011727;28;20046;-59
2022/09/06 23:46:34;;;;;;;3.17;1.00;;;24.10;83.10;;;;;;10021640;28;20076;-61
2022/09/06 23:51:24;;;;;;;2.45;1.55;;;24.10;83.60;;;;;;10015546;28;20033;-60
2022/09/06 23:56:15;;;;;;;3.22;1.10;;;23.90;85.00;;;;;;10016130;28;20404;-60
